createdAt,value
2019-04-27T00:01:18.070Z,1.42
2019-04-27T00:04:19.248Z,1.42
2019-04-27T00:06:59.573Z,1.57
2019-04-27T00:09:43.174Z,1.07
2019-04-27T00:12:22.443Z,1.35
2019-04-27T00:14:57.142Z,1.77
2019-04-27T00:17:49.567Z,1.32
2019-04-27T00:20:47.761Z,1.20
2019-04-27T00:23:25.165Z,1.20
2019-04-27T00:26:03.116Z,1.30
2019-04-27T00:28:40.169Z,1.50
2019-04-27T00:31:17.284Z,1.60
2019-04-27T00:33:53.656Z,1.20
2019-04-27T00:36:37.473Z,1.02
2019-04-27T00:39:26.233Z,0.95
2019-04-27T00:42:04.137Z,1.02
2019-04-27T00:44:40.956Z,1.20
2019-04-27T00:47:16.943Z,1.32
2019-04-27T00:49:54.844Z,1.10
2019-04-27T00:52:32.578Z,1.37
2019-04-27T00:55:10.020Z,1.20
2019-04-27T00:57:58.995Z,1.15
2019-04-27T01:01:04.171Z,1.10
2019-04-27T01:03:47.678Z,1.07
2019-04-27T01:06:24.830Z,1.00
2019-04-27T01:09:03.550Z,1.17
2019-04-27T01:11:40.217Z,1.30
2019-04-27T01:14:16.717Z,1.17
2019-04-27T01:16:52.952Z,1.25
2019-04-27T01:19:29.264Z,1.40
2019-04-27T01:22:05.219Z,1.30
2019-04-27T01:24:41.296Z,1.20
2019-04-27T01:27:35.781Z,1.27
2019-04-27T01:30:23.436Z,1.40
2019-04-27T01:33:00.153Z,1.17
2019-04-27T01:35:39.159Z,1.17
2019-04-27T01:38:16.582Z,1.07
2019-04-27T01:40:53.802Z,1.45
2019-04-27T01:43:30.508Z,1.25
2019-04-27T01:46:07.050Z,1.50
2019-04-27T01:48:43.033Z,1.40
2019-04-27T01:51:20.800Z,1.20
2019-04-27T01:53:59.256Z,1.35
2019-04-27T01:56:34.936Z,1.37
2019-04-27T01:59:11.416Z,1.12
2019-04-27T02:02:16.143Z,1.32
2019-04-27T02:05:10.278Z,1.47
2019-04-27T02:07:49.009Z,1.40
2019-04-27T02:10:25.784Z,1.20
2019-04-27T02:13:02.197Z,1.20
2019-04-27T02:15:39.538Z,1.27
2019-04-27T02:18:16.504Z,1.30
2019-04-27T02:20:52.646Z,1.17
2019-04-27T02:23:29.946Z,1.57
2019-04-27T02:26:05.993Z,1.22
2019-04-27T02:29:02.465Z,1.57
2019-04-27T02:31:46.188Z,1.07
2019-04-27T02:34:24.713Z,1.12
2019-04-27T02:37:02.621Z,0.98
2019-04-27T02:39:39.941Z,1.35
2019-04-27T02:42:19.426Z,1.42
2019-04-27T02:44:55.668Z,1.12
2019-04-27T02:47:31.650Z,1.22
2019-04-27T02:50:10.538Z,1.37
2019-04-27T02:52:55.414Z,1.45
2019-04-27T02:55:31.619Z,1.77
2019-04-27T02:58:12.417Z,1.20
2019-04-27T03:00:46.118Z,1.30
2019-04-27T03:03:22.873Z,1.00
2019-04-27T03:05:59.857Z,1.42
2019-04-27T03:08:36.057Z,1.57
2019-04-27T03:11:12.295Z,1.37
2019-04-27T03:14:10.300Z,1.20
2019-04-27T03:17:00.226Z,1.10
2019-04-27T03:19:40.065Z,1.10
2019-04-27T03:22:26.582Z,1.32
2019-04-27T03:25:27.049Z,1.50
2019-04-27T03:28:15.635Z,0.90
2019-04-27T03:30:52.643Z,1.35
2019-04-27T03:33:32.697Z,1.30
2019-04-27T03:36:12.426Z,1.17
2019-04-27T03:38:46.733Z,1.40
2019-04-27T03:41:22.661Z,1.27
2019-04-27T03:43:59.957Z,1.22
2019-04-27T03:46:39.482Z,1.15
2019-04-27T03:49:27.841Z,1.30
2019-04-27T03:52:02.501Z,1.67
2019-04-27T03:54:50.368Z,1.30
2019-04-27T03:57:32.350Z,1.30
2019-04-27T04:00:13.990Z,1.55
2019-04-27T04:02:50.614Z,1.40
2019-04-27T04:05:29.904Z,1.20
2019-04-27T04:08:06.178Z,1.15
2019-04-27T04:10:49.549Z,1.40
2019-04-27T04:13:30.399Z,1.40
2019-04-27T04:16:25.814Z,1.25
2019-04-27T04:19:04.350Z,1.40
2019-04-27T04:21:40.985Z,1.00
2019-04-27T04:24:19.945Z,1.52
2019-04-27T04:26:56.440Z,1.27
2019-04-27T04:29:33.182Z,1.02
2019-04-27T04:32:10.665Z,1.37
2019-04-27T04:34:46.836Z,1.22
2019-04-27T04:37:23.682Z,1.30
2019-04-27T04:39:59.857Z,1.35
2019-04-27T04:42:42.668Z,1.00
2019-04-27T04:45:30.498Z,1.00
2019-04-27T04:48:16.058Z,1.17
2019-04-27T04:50:52.778Z,1.57
2019-04-27T04:53:29.441Z,1.15
2019-04-27T04:56:05.512Z,1.17
2019-04-27T04:58:41.699Z,0.90
2019-04-27T05:01:19.634Z,1.27
2019-04-27T05:03:56.122Z,1.42
2019-04-27T05:06:32.209Z,1.30
2019-04-27T05:09:09.368Z,1.60
2019-04-27T05:11:45.800Z,1.20
2019-04-27T05:14:22.229Z,1.20
2019-04-27T05:16:59.182Z,1.05
2019-04-27T05:19:38.964Z,1.50
2019-04-27T05:22:15.457Z,1.25
2019-04-27T05:25:00.462Z,1.30
2019-04-27T05:27:38.959Z,1.45
2019-04-27T05:30:15.359Z,1.72
2019-04-27T05:32:51.637Z,1.37
2019-04-27T05:35:27.594Z,1.30
2019-04-27T05:38:07.455Z,1.00
2019-04-27T05:40:42.360Z,1.42
2019-04-27T05:43:20.636Z,1.50
2019-04-27T05:46:39.696Z,1.50
2019-04-27T05:49:20.999Z,1.02
2019-04-27T05:51:59.340Z,1.42
2019-04-27T05:54:36.117Z,1.30
2019-04-27T05:57:12.532Z,1.27
2019-04-27T05:59:49.833Z,1.40
2019-04-27T06:02:30.010Z,1.45
2019-04-27T06:05:08.837Z,1.30
2019-04-27T06:07:45.208Z,1.30
2019-04-27T06:10:20.937Z,1.02
2019-04-27T06:12:57.333Z,1.20
2019-04-27T06:15:33.352Z,1.35
2019-04-27T06:18:09.955Z,0.95
2019-04-27T06:20:53.358Z,1.30
2019-04-27T06:23:24.463Z,1.60
2019-04-27T06:26:01.774Z,1.20
2019-04-27T06:28:39.792Z,1.30
2019-04-27T06:31:17.530Z,1.32
2019-04-27T06:33:55.221Z,1.40
2019-04-27T06:36:31.414Z,1.60
2019-04-27T06:39:09.806Z,1.37
2019-04-27T06:41:48.924Z,1.50
2019-04-27T06:44:25.092Z,1.35
2019-04-27T06:47:01.488Z,1.30
2019-04-27T06:49:39.573Z,1.30
2019-04-27T06:52:16.341Z,1.35
2019-04-27T06:54:52.605Z,1.37
2019-04-27T06:57:29.229Z,1.27
2019-04-27T07:00:06.320Z,2.15
2019-04-27T07:02:42.229Z,1.72
2019-04-27T07:05:20.450Z,1.50
2019-04-27T07:07:59.105Z,1.55
2019-04-27T07:10:36.032Z,1.22
2019-04-27T07:13:11.840Z,1.67
2019-04-27T07:15:48.572Z,1.67
2019-04-27T07:18:25.077Z,2.17
2019-04-27T07:21:01.158Z,1.32
2019-04-27T07:23:39.213Z,1.60
2019-04-27T07:26:15.452Z,2.35
2019-04-27T07:28:52.013Z,1.80
2019-04-27T07:31:31.602Z,1.77
2019-04-27T07:34:09.167Z,2.35
2019-04-27T07:36:45.560Z,1.87
2019-04-27T07:39:22.331Z,1.32
2019-04-27T07:41:59.314Z,2.02
2019-04-27T07:44:43.904Z,5.22
2019-04-27T07:47:25.386Z,2.37
2019-04-27T07:50:01.677Z,1.77
2019-04-27T07:52:40.366Z,1.82
2019-04-27T07:55:18.576Z,2.10
2019-04-27T07:57:55.251Z,2.45
2019-04-27T08:00:32.014Z,2.50
2019-04-27T08:03:07.704Z,3.08
2019-04-27T08:05:43.883Z,2.42
2019-04-27T08:08:21.515Z,3.30
2019-04-27T08:10:59.505Z,4.05
2019-04-27T08:13:39.371Z,3.75
2019-04-27T08:16:16.137Z,4.22
2019-04-27T08:18:52.466Z,4.35
2019-04-27T08:21:28.877Z,4.30
2019-04-27T08:24:06.194Z,4.03
2019-04-27T08:26:52.563Z,3.60
2019-04-27T08:29:46.678Z,4.08
2019-04-27T08:32:29.283Z,3.58
2019-04-27T08:35:06.525Z,3.67
2019-04-27T08:37:42.576Z,3.50
2019-04-27T08:40:19.883Z,3.33
2019-04-27T08:42:56.222Z,3.37
2019-04-27T08:45:32.556Z,3.05
2019-04-27T08:48:09.435Z,2.60
2019-04-27T08:50:46.371Z,2.90
2019-04-27T08:53:22.865Z,3.27
2019-04-27T08:56:00.398Z,3.58
2019-04-27T08:58:36.336Z,2.20
2019-04-27T09:01:12.293Z,2.92
2019-04-27T09:03:49.553Z,2.90
2019-04-27T09:06:26.052Z,3.00
2019-04-27T09:09:09.476Z,2.58
2019-04-27T09:11:59.463Z,2.85
2019-04-27T09:14:49.366Z,2.50
2019-04-27T09:17:35.633Z,3.15
2019-04-27T09:20:20.312Z,2.92
2019-04-27T09:22:56.721Z,2.98
2019-04-27T09:25:32.664Z,2.95
2019-04-27T09:28:08.900Z,3.00
2019-04-27T09:30:46.190Z,3.17
2019-04-27T09:33:22.690Z,3.05
2019-04-27T09:35:58.624Z,2.80
2019-04-27T09:38:36.115Z,2.85
2019-04-27T09:41:12.039Z,2.40
2019-04-27T09:43:48.714Z,2.62
2019-04-27T09:46:25.992Z,2.60
2019-04-27T09:49:03.496Z,2.50
2019-04-27T09:51:39.921Z,2.40
2019-04-27T09:54:16.617Z,3.77
2019-04-27T09:56:52.857Z,2.83
2019-04-27T09:59:29.972Z,2.87
2019-04-27T10:02:08.442Z,2.55
2019-04-27T10:04:46.045Z,2.30
2019-04-27T10:07:22.325Z,2.22
2019-04-27T10:09:58.475Z,3.02
2019-04-27T10:12:36.395Z,2.77
2019-04-27T10:15:12.533Z,3.35
2019-04-27T10:17:48.570Z,3.15
2019-04-27T10:20:24.601Z,2.83
2019-04-27T10:23:01.509Z,3.08
2019-04-27T10:25:38.286Z,2.50
2019-04-27T10:28:14.336Z,2.92
2019-04-27T10:30:51.486Z,2.10
2019-04-27T10:33:29.333Z,2.92
2019-04-27T10:36:06.619Z,3.22
2019-04-27T10:38:42.781Z,3.10
2019-04-27T10:41:19.300Z,2.30
2019-04-27T10:43:55.922Z,2.85
2019-04-27T10:46:32.202Z,2.30
2019-04-27T10:49:09.403Z,1.92
2019-04-27T10:51:46.204Z,2.02
2019-04-27T10:54:23.255Z,2.47
2019-04-27T10:57:00.603Z,2.95
2019-04-27T10:59:37.334Z,1.90
2019-04-27T11:02:14.036Z,2.35
2019-04-27T11:04:59.510Z,1.70
2019-04-27T11:07:38.076Z,2.17
2019-04-27T11:10:16.192Z,2.20
2019-04-27T11:12:52.249Z,2.33
2019-04-27T11:15:28.649Z,1.80
2019-04-27T11:18:06.286Z,1.70
2019-04-27T11:20:42.632Z,1.82
2019-04-27T11:23:21.411Z,1.87
2019-04-27T11:26:02.399Z,1.67
2019-04-27T11:28:42.785Z,2.02
2019-04-27T11:31:21.164Z,1.70
2019-04-27T11:33:59.916Z,1.90
2019-04-27T11:36:42.941Z,1.67
2019-04-27T11:39:21.154Z,1.82
2019-04-27T11:41:57.560Z,1.67
2019-04-27T11:44:37.078Z,1.52
2019-04-27T11:47:16.233Z,2.17
2019-04-27T11:49:55.394Z,1.67
2019-04-27T11:52:32.613Z,1.60
2019-04-27T11:55:09.961Z,2.42
2019-04-27T11:57:46.998Z,1.37
2019-04-27T12:00:24.713Z,1.92
2019-04-27T12:03:02.456Z,2.17
2019-04-27T12:05:38.760Z,1.90
2019-04-27T12:08:16.195Z,1.60
2019-04-27T12:10:52.882Z,1.95
2019-04-27T12:13:29.769Z,1.57
2019-04-27T12:16:05.670Z,1.80
2019-04-27T12:18:42.619Z,1.50
2019-04-27T12:21:19.260Z,1.62
2019-04-27T12:23:55.324Z,2.20
2019-04-27T12:26:45.294Z,1.42
2019-04-27T12:29:24.089Z,2.22
2019-04-27T12:32:01.319Z,2.10
2019-04-27T12:34:37.697Z,1.70
2019-04-27T12:37:15.757Z,1.70
2019-04-27T12:39:52.610Z,1.80
2019-04-27T12:42:29.712Z,1.70
2019-04-27T12:45:07.295Z,2.37
2019-04-27T12:47:43.437Z,1.15
2019-04-27T12:50:20.214Z,1.85
2019-04-27T12:53:00.281Z,1.60
2019-04-27T12:55:52.135Z,1.50
2019-04-27T12:58:34.095Z,2.10
2019-04-27T13:01:12.137Z,2.08
2019-04-27T13:03:48.511Z,1.60
2019-04-27T13:06:25.752Z,2.00
2019-04-27T13:09:02.365Z,2.02
2019-04-27T13:11:38.817Z,2.00
2019-04-27T13:14:16.339Z,2.05
2019-04-27T13:16:53.243Z,2.00
2019-04-27T13:19:29.543Z,2.05
2019-04-27T13:22:06.255Z,2.40
2019-04-27T13:24:42.987Z,2.98
2019-04-27T13:27:19.226Z,2.45
2019-04-27T13:29:55.678Z,1.92
2019-04-27T13:32:33.149Z,2.77
2019-04-27T13:35:10.700Z,2.15
2019-04-27T13:37:47.115Z,2.30
2019-04-27T13:40:23.711Z,2.08
2019-04-27T13:43:05.194Z,2.72
2019-04-27T13:45:51.014Z,3.00
2019-04-27T13:48:37.164Z,2.05
2019-04-27T13:51:16.717Z,2.75
2019-04-27T13:53:52.888Z,2.40
2019-04-27T13:56:29.292Z,2.60
2019-04-27T13:59:05.522Z,2.70
2019-04-27T14:01:43.081Z,2.62
2019-04-27T14:04:21.266Z,2.67
2019-04-27T14:06:59.035Z,1.95
2019-04-27T14:09:36.818Z,2.47
2019-04-27T14:12:18.793Z,2.80
2019-04-27T14:14:56.940Z,1.92
2019-04-27T14:17:33.103Z,2.42
2019-04-27T14:20:10.132Z,2.35
2019-04-27T14:22:46.468Z,2.33
2019-04-27T14:25:22.905Z,2.60
2019-04-27T14:27:58.973Z,2.52
2019-04-27T14:30:36.074Z,2.17
2019-04-27T14:33:12.020Z,1.80
2019-04-27T14:35:49.944Z,2.02
2019-04-27T14:38:26.287Z,2.50
2019-04-27T14:41:02.971Z,1.90
2019-04-27T14:43:39.540Z,2.08
2019-04-27T14:46:16.125Z,2.02
2019-04-27T14:48:53.291Z,2.10
2019-04-27T14:51:29.858Z,1.87
2019-04-27T14:54:06.121Z,1.60
2019-04-27T14:56:42.763Z,1.60
2019-04-27T14:59:19.156Z,1.77
2019-04-27T15:01:55.561Z,1.85
2019-04-27T15:04:33.653Z,1.77
2019-04-27T15:07:11.063Z,3.80
2019-04-27T15:09:49.610Z,5.80
2019-04-27T15:12:30.784Z,6.65
2019-04-27T15:15:05.335Z,5.42
2019-04-27T15:17:41.392Z,4.70
2019-04-27T15:20:27.200Z,4.62
2019-04-27T15:23:03.268Z,4.40
2019-04-27T15:25:45.609Z,4.28
2019-04-27T15:28:22.753Z,4.03
2019-04-27T15:31:26.198Z,4.08
2019-04-27T15:34:27.563Z,4.95
2019-04-27T15:37:28.246Z,4.47
2019-04-27T15:40:36.562Z,3.85
2019-04-27T15:43:27.312Z,3.90
2019-04-27T15:46:05.203Z,3.30
2019-04-27T15:48:41.844Z,3.17
2019-04-27T15:51:20.997Z,3.47
2019-04-27T15:53:58.665Z,2.95
2019-04-27T15:56:36.980Z,2.80
2019-04-27T15:59:13.233Z,3.20
2019-04-27T16:01:49.801Z,2.92
2019-04-27T16:04:26.873Z,3.33
2019-04-27T16:07:03.171Z,3.08
2019-04-27T16:09:39.684Z,2.60
2019-04-27T16:12:15.813Z,3.12
2019-04-27T16:14:52.268Z,4.05
2019-04-27T16:17:31.650Z,3.60
2019-04-27T16:20:07.240Z,3.50
2019-04-27T16:22:43.576Z,5.53
2019-04-27T16:25:23.565Z,6.60
2019-04-27T16:27:58.347Z,6.33
2019-04-27T16:30:35.474Z,6.33
2019-04-27T16:33:15.526Z,5.62
2019-04-27T16:35:53.055Z,7.25
2019-04-27T16:38:50.617Z,5.67
2019-04-27T16:41:28.122Z,6.47
2019-04-27T16:44:06.804Z,5.42
2019-04-27T16:46:43.731Z,5.25
2019-04-27T16:49:19.983Z,6.05
2019-04-27T16:51:56.713Z,4.85
2019-04-27T16:54:33.117Z,5.00
2019-04-27T16:57:10.618Z,4.95
2019-04-27T16:59:54.821Z,4.40
2019-04-27T17:02:25.343Z,3.98
2019-04-27T17:05:01.509Z,4.33
2019-04-27T17:07:41.715Z,4.95
2019-04-27T17:10:25.161Z,4.33
2019-04-27T17:12:54.681Z,4.10
2019-04-27T17:15:53.719Z,3.85
2019-04-27T17:18:53.080Z,3.67
2019-04-27T17:21:33.343Z,3.47
2019-04-27T17:24:09.217Z,4.53
2019-04-27T17:26:47.827Z,4.62
2019-04-27T17:29:24.280Z,4.03
2019-04-27T17:32:02.340Z,3.70
2019-04-27T17:34:39.739Z,3.50
2019-04-27T17:37:16.212Z,3.10
2019-04-27T17:39:53.566Z,3.00
2019-04-27T17:42:31.006Z,4.00
2019-04-27T17:45:09.039Z,3.92
2019-04-27T17:47:45.690Z,3.08
2019-04-27T17:50:25.089Z,3.17
2019-04-27T17:53:01.625Z,3.00
2019-04-27T17:55:37.990Z,3.10
2019-04-27T17:58:14.204Z,3.62
2019-04-27T18:00:50.351Z,4.20
2019-04-27T18:03:28.503Z,4.12
2019-04-27T18:06:05.236Z,3.85
2019-04-27T18:08:41.412Z,3.83
2019-04-27T18:11:19.256Z,4.00
2019-04-27T18:13:55.913Z,3.75
2019-04-27T18:16:34.386Z,3.77
2019-04-27T18:19:25.280Z,3.72
2019-04-27T18:22:03.925Z,3.00
2019-04-27T18:24:55.619Z,5.12
2019-04-27T18:27:49.984Z,5.25
2019-04-27T18:30:46.397Z,4.40
2019-04-27T18:33:23.260Z,4.20
2019-04-27T18:36:05.158Z,3.92
2019-04-27T18:38:39.178Z,3.98
2019-04-27T18:41:18.381Z,3.55
2019-04-27T18:43:58.069Z,4.10
2019-04-27T18:46:34.289Z,4.00
2019-04-27T18:49:22.628Z,4.30
2019-04-27T18:52:17.642Z,3.95
2019-04-27T18:54:54.698Z,3.40
2019-04-27T18:57:30.953Z,4.03
2019-04-27T19:00:14.310Z,3.17
2019-04-27T19:02:51.616Z,3.00
2019-04-27T19:05:39.644Z,2.90
2019-04-27T19:08:06.423Z,3.45
2019-04-27T19:10:42.567Z,3.15
2019-04-27T19:13:19.306Z,3.10
2019-04-27T19:15:57.917Z,3.17
2019-04-27T19:18:35.473Z,2.95
2019-04-27T19:21:12.192Z,2.85
2019-04-27T19:23:50.121Z,2.45
2019-04-27T19:26:45.065Z,2.85
2019-04-27T19:29:25.485Z,2.22
2019-04-27T19:32:03.046Z,3.05
2019-04-27T19:34:40.492Z,2.90
2019-04-27T19:37:18.365Z,2.42
2019-04-27T19:39:55.763Z,2.30
2019-04-27T19:42:32.477Z,3.02
2019-04-27T19:45:09.522Z,3.27
2019-04-27T19:47:46.118Z,2.25
2019-04-27T19:50:22.647Z,2.40
2019-04-27T19:52:59.662Z,2.85
2019-04-27T19:55:36.179Z,1.67
2019-04-27T19:58:14.844Z,2.27
2019-04-27T20:01:11.129Z,2.35
2019-04-27T20:03:46.873Z,2.58
2019-04-27T20:06:23.601Z,2.65
2019-04-27T20:09:01.553Z,1.98
2019-04-27T20:11:38.431Z,1.70
2019-04-27T20:14:14.777Z,1.77
2019-04-27T20:16:52.008Z,2.22
2019-04-27T20:19:28.533Z,1.90
2019-04-27T20:22:05.797Z,1.35
2019-04-27T20:24:41.813Z,2.05
2019-04-27T20:27:18.241Z,1.82
2019-04-27T20:29:54.557Z,1.57
2019-04-27T20:32:31.520Z,1.62
2019-04-27T20:35:08.110Z,1.75
2019-04-27T20:37:44.269Z,1.95
2019-04-27T20:40:21.824Z,1.77
2019-04-27T20:42:58.848Z,1.50
2019-04-27T20:45:35.885Z,1.75
2019-04-27T20:48:12.546Z,1.70
2019-04-27T20:50:51.341Z,2.10
2019-04-27T20:53:32.757Z,1.77
2019-04-27T20:56:09.688Z,1.85
2019-04-27T20:58:45.868Z,1.85
2019-04-27T21:01:22.109Z,1.77
2019-04-27T21:04:00.921Z,1.92
2019-04-27T21:06:42.631Z,2.02
2019-04-27T21:09:21.297Z,1.72
2019-04-27T21:11:57.691Z,1.77
2019-04-27T21:14:34.044Z,1.65
2019-04-27T21:17:12.145Z,1.95
2019-04-27T21:19:47.939Z,1.60
2019-04-27T21:22:24.300Z,1.62
2019-04-27T21:25:01.589Z,1.85
2019-04-27T21:27:38.033Z,1.70
2019-04-27T21:30:15.074Z,1.40
2019-04-27T21:32:52.856Z,1.62
2019-04-27T21:35:29.713Z,1.62
2019-04-27T21:38:06.552Z,1.98
2019-04-27T21:40:43.789Z,1.62
2019-04-27T21:43:21.606Z,1.80
2019-04-27T21:45:57.775Z,1.98
2019-04-27T21:48:34.350Z,1.70
2019-04-27T21:51:11.941Z,1.67
2019-04-27T21:54:07.086Z,1.72
2019-04-27T21:56:43.660Z,2.10
2019-04-27T21:59:21.104Z,1.70
2019-04-27T22:02:02.320Z,1.52
2019-04-27T22:04:39.403Z,1.60
2019-04-27T22:07:16.066Z,2.08
2019-04-27T22:09:52.055Z,2.02
2019-04-27T22:12:28.598Z,1.90
2019-04-27T22:15:06.236Z,1.98
2019-04-27T22:17:42.650Z,1.87
2019-04-27T22:20:20.729Z,1.60
2019-04-27T22:23:01.644Z,1.50
2019-04-27T22:25:38.487Z,1.42
2019-04-27T22:28:15.272Z,1.85
2019-04-27T22:30:51.591Z,1.67
2019-04-27T22:33:28.619Z,1.47
2019-04-27T22:36:06.052Z,1.60
2019-04-27T22:38:43.268Z,1.52
2019-04-27T22:41:38.050Z,1.95
2019-04-27T22:44:39.389Z,1.35
2019-04-27T22:47:15.538Z,1.90
2019-04-27T22:49:51.575Z,1.55
2019-04-27T22:52:28.470Z,1.12
2019-04-27T22:55:04.910Z,1.80
2019-04-27T22:57:52.707Z,1.95
2019-04-27T23:00:54.160Z,1.72
2019-04-27T23:03:33.805Z,1.40
2019-04-27T23:06:11.419Z,1.62
2019-04-27T23:08:48.036Z,2.08
2019-04-27T23:11:23.800Z,1.27
2019-04-27T23:14:01.135Z,1.40
2019-04-27T23:16:41.620Z,1.42
2019-04-27T23:19:18.621Z,1.40
2019-04-27T23:21:54.695Z,1.55
2019-04-27T23:24:31.065Z,1.72
2019-04-27T23:27:08.418Z,1.57
2019-04-27T23:29:45.292Z,1.32
2019-04-27T23:32:28.120Z,1.82
2019-04-27T23:35:05.505Z,1.57
2019-04-27T23:37:42.202Z,1.85
2019-04-27T23:40:18.608Z,1.70
2019-04-27T23:42:54.799Z,1.72
2019-04-27T23:45:31.885Z,1.32
2019-04-27T23:48:07.868Z,1.70
2019-04-27T23:50:48.321Z,1.57
2019-04-27T23:53:28.870Z,1.45
2019-04-27T23:56:05.676Z,1.55
2019-04-27T23:58:41.986Z,1.17
